Daisy, OK (74540)

7:55 PM CDT on July 23, 2014 (GMT -0500)
McAlester Regional (KMLC) Elev 768 ft | 34.88 °N, 95.78 °W | Change Station
Active Advisory: Heat Advisory

Current weather conditions updated 5 minutes ago

Mostly Cloudy
Mostly Cloudy
73 °F
Feels Like 73 °F
N
4
Wind Variable Wind from East

Tomorrow is forecast to be nearly the same temperature as today.

Today
High -- | Low -- °F
--% Chance of Precip.
Yesterday
High -- | Low -- °F
Precip. -- in
6:26 AM 8:31 PM
Waning Crescent, 8% visible
Pressure 30.10 in
Visibility 10.0 miles
Clouds Mostly Cloudy 8500 ft
Dew Point 70 °F
Humidity 88%
Rainfall 0.15 in
Snow Depth Not available.
UV 0 out of 12
Pollen 4.20 out of 12
Air Quality Not available.
Flu Activity Not available.
SPECI KMLC 240050Z AUTO 09003KT 10SM VCTS BKN085 23/21 A3010 RMK AO2 LTG DSNT S AND SW TSB25E44

More Conditions Fewer Conditions

Pressure 30.10 in
Visibility 10.0 miles
Clouds Mostly Cloudy 8500 ft
Dew Point 70 °F
Humidity 88%
Rainfall 0.15 in
Snow Depth Not available.
UV 0 out of 12
Pollen 4.20 out of 12
Air Quality Not available.
Flu Activity Not available.
SPECI KMLC 240050Z AUTO 09003KT 10SM VCTS BKN085 23/21 A3010 RMK AO2 LTG DSNT S AND SW TSB25E44

More Conditions Fewer Conditions

10-Day Weather Forecast

Almanac

Astronomy

Jul. 23, 2014 Rise Set
Actual Time 6:26 AM CDT 8:31 PM CDT
Civil Twilight 5:58 AM CDT 8:59 PM CDT
Nautical Twilight 5:24 AM CDT 9:34 PM CDT
Astronomical Twilight 4:47 AM CDT 10:11 PM CDT
Moon 3:45 AM CDT (7/23) 6:02 PM CDT (7/23)
Length of Visible Light 15h 01m
Length of Day
14h 04m
Tomorrow will be 1m 23s shorter.
Waning Crescent, 8% of the Moon is Illuminated
Today
Waning Crescent
Jul 26
New
Aug 3
First Quarter
Aug 10
Full
Aug 17
Last Quarter

Today's Extremes

State Highs State Lows

Community

WunderPhotos

Upload Photos

1,736,822 photos uploaded!

Nearby

Snow Depth

Station Depth Elevation
No new snow has been reported.

Earthquake Activity

City Distance Mag. Time & Date
Spencer, Oklahoma 117 miles 2.7 4:56 PM CDT
2014-07-18
Guthrie, Oklahoma 127 miles 2.9 8:59 PM CDT
2014-07-17
Perry, Oklahoma 140 miles 2.8 8:37 PM CDT
2014-07-17
Perry, Oklahoma 159 miles 2.5 2:34 AM CDT
2014-07-17
Minimum magnitude displayed is 2.5.

Coastal Water Temperatures

Place Temperature
No Stations Reporting

Nearby Weather Stations

Station Location Temp. Heat Index Dew Point Humidity Wind Precip. Elev Updated Type
MesoWest GRACE , Wardville, OK 73 °F 71 °F - - North  at  - 0.00 in / hr 678 ft 6:50 PM CDT MADIS
MesoWest NAVY , Savanna, OK 70 °F - - - North  at  - 0.00 in / hr 711 ft 5:25 PM CDT MADIS
Kinkead Hills, McAlester, OK 80.1 °F 83 °F 70 °F 71% NNE  at  6.0 mph - / hr 808 ft 3:59 PM CDT Normal

Show More Stations Show Fewer Stations